createdAt,value
2019-01-26T00:01:21.509Z,22.00
2019-01-26T00:03:53.274Z,23.77
2019-01-26T00:06:24.083Z,23.03
2019-01-26T00:08:57.431Z,22.30
2019-01-26T00:11:28.436Z,22.63
2019-01-26T00:14:00.404Z,24.77
2019-01-26T00:16:31.025Z,23.47
2019-01-26T00:19:02.494Z,23.40
2019-01-26T00:21:34.033Z,22.93
2019-01-26T00:24:06.121Z,24.80
2019-01-26T00:26:37.331Z,23.17
2019-01-26T00:29:08.029Z,22.37
2019-01-26T00:31:38.756Z,23.40
2019-01-26T00:34:09.597Z,22.00
2019-01-26T00:36:43.226Z,23.73
2019-01-26T00:39:14.026Z,23.90
2019-01-26T00:41:44.899Z,20.90
2019-01-26T00:44:15.677Z,22.57
2019-01-26T00:46:46.489Z,22.27
2019-01-26T00:49:16.926Z,20.57
2019-01-26T00:51:47.425Z,20.27
2019-01-26T00:54:18.489Z,20.73
2019-01-26T00:56:51.869Z,21.00
2019-01-26T00:59:22.301Z,21.43
2019-01-26T01:01:52.844Z,20.40
2019-01-26T01:04:23.412Z,19.83
2019-01-26T01:06:53.838Z,21.57
2019-01-26T01:09:24.605Z,21.03
2019-01-26T01:12:13.727Z,19.07
2019-01-26T01:14:44.201Z,20.43
2019-01-26T01:17:14.802Z,19.40
2019-01-26T01:19:48.709Z,19.10
2019-01-26T01:22:19.633Z,18.93
2019-01-26T01:24:50.278Z,18.87
2019-01-26T01:27:22.915Z,18.33
2019-01-26T01:29:55.666Z,18.27
2019-01-26T01:32:27.997Z,18.93
2019-01-26T01:34:58.795Z,19.37
2019-01-26T01:37:29.259Z,18.67
2019-01-26T01:40:03.336Z,19.93
2019-01-26T01:42:36.340Z,20.90
2019-01-26T01:45:09.678Z,19.57
2019-01-26T01:47:41.919Z,19.77
2019-01-26T01:50:13.727Z,20.37
2019-01-26T01:52:47.053Z,20.93
2019-01-26T01:55:21.472Z,19.90
2019-01-26T01:57:57.414Z,20.47
2019-01-26T02:00:28.291Z,20.27
2019-01-26T02:03:02.999Z,20.63
2019-01-26T02:05:31.158Z,20.40
2019-01-26T02:08:06.291Z,21.07
2019-01-26T02:10:36.927Z,21.33
2019-01-26T02:13:10.930Z,19.93
2019-01-26T02:15:42.024Z,21.27
2019-01-26T02:18:12.467Z,20.03
2019-01-26T02:20:43.173Z,19.17
2019-01-26T02:23:13.823Z,21.47
2019-01-26T02:25:53.325Z,21.47
2019-01-26T02:28:27.936Z,20.33
2019-01-26T02:30:58.542Z,20.43
2019-01-26T02:33:36.023Z,20.27
2019-01-26T02:36:10.402Z,20.43
2019-01-26T02:38:41.499Z,20.17
2019-01-26T02:41:13.234Z,20.03
2019-01-26T02:43:43.907Z,20.43
2019-01-26T02:46:14.639Z,20.47
2019-01-26T02:48:45.679Z,21.07
2019-01-26T02:51:50.398Z,19.23
2019-01-26T02:54:21.189Z,20.33
2019-01-26T02:56:51.987Z,19.87
2019-01-26T02:59:28.792Z,19.07
2019-01-26T03:02:12.451Z,20.03
2019-01-26T03:04:44.872Z,19.17
2019-01-26T03:07:24.059Z,20.07
2019-01-26T03:09:54.828Z,19.97
2019-01-26T03:12:25.371Z,19.80
2019-01-26T03:15:12.612Z,20.40
2019-01-26T03:18:16.629Z,19.27
2019-01-26T03:21:15.007Z,19.63
2019-01-26T03:24:43.164Z,19.03
2019-01-26T03:27:23.873Z,17.43
2019-01-26T03:30:00.561Z,18.13
2019-01-26T03:32:34.292Z,19.20
2019-01-26T03:35:05.467Z,19.77
2019-01-26T03:37:36.464Z,19.00
2019-01-26T03:40:34.414Z,19.23
2019-01-26T03:43:14.308Z,19.10
2019-01-26T03:45:47.145Z,19.87
2019-01-26T03:48:31.606Z,19.43
2019-01-26T03:51:07.047Z,20.30
2019-01-26T03:53:37.728Z,19.10
2019-01-26T03:56:11.256Z,18.83
2019-01-26T03:58:41.794Z,17.10
2019-01-26T04:01:12.257Z,19.00
2019-01-26T04:03:43.418Z,17.17
2019-01-26T04:06:14.058Z,17.40
2019-01-26T04:08:46.652Z,17.87
2019-01-26T04:11:17.188Z,17.90
2019-01-26T04:13:47.869Z,18.07
2019-01-26T04:16:18.394Z,17.57
2019-01-26T04:18:48.860Z,17.00
2019-01-26T04:21:19.493Z,16.07
2019-01-26T04:23:49.933Z,17.87
2019-01-26T04:26:23.130Z,15.70
2019-01-26T04:28:53.586Z,15.93
2019-01-26T04:31:24.135Z,15.13
2019-01-26T04:33:59.013Z,16.03
2019-01-26T04:36:34.808Z,14.77
2019-01-26T04:39:08.868Z,14.27
2019-01-26T04:41:39.332Z,14.10
2019-01-26T04:44:09.864Z,14.60
2019-01-26T04:46:43.552Z,15.33
2019-01-26T04:49:14.378Z,12.90
2019-01-26T04:51:49.514Z,14.73
2019-01-26T04:54:20.173Z,14.80
2019-01-26T04:56:53.026Z,14.37
2019-01-26T04:59:23.878Z,13.33
2019-01-26T05:01:55.986Z,14.23
2019-01-26T05:04:26.477Z,13.27
2019-01-26T05:06:57.017Z,13.30
2019-01-26T05:09:27.818Z,13.13
2019-01-26T05:11:58.330Z,12.37
2019-01-26T05:14:28.784Z,12.30
2019-01-26T05:16:59.215Z,12.50
2019-01-26T05:19:30.514Z,12.93
2019-01-26T05:22:01.193Z,13.30
2019-01-26T05:24:34.589Z,13.33
2019-01-26T05:27:05.524Z,11.87
2019-01-26T05:29:40.284Z,12.33
2019-01-26T05:32:10.778Z,11.47
2019-01-26T05:34:41.338Z,11.93
2019-01-26T05:37:11.968Z,12.60
2019-01-26T05:39:42.875Z,11.47
2019-01-26T05:42:13.321Z,12.07
2019-01-26T05:44:44.142Z,11.43
2019-01-26T05:47:17.718Z,9.73
2019-01-26T05:49:49.256Z,12.30
2019-01-26T05:52:19.821Z,10.43
2019-01-26T05:54:50.723Z,11.40
2019-01-26T05:57:21.607Z,10.63
2019-01-26T05:59:52.423Z,10.70
2019-01-26T06:02:22.986Z,10.60
2019-01-26T06:04:53.451Z,9.57
2019-01-26T06:07:24.086Z,10.10
2019-01-26T06:09:56.608Z,10.37
2019-01-26T06:12:29.759Z,9.40
2019-01-26T06:15:02.973Z,10.50
2019-01-26T06:17:33.742Z,10.40
2019-01-26T06:20:04.515Z,9.53
2019-01-26T06:22:46.259Z,10.17
2019-01-26T06:25:17.700Z,10.40
2019-01-26T06:27:57.753Z,10.40
2019-01-26T06:30:29.108Z,9.77
2019-01-26T06:33:06.323Z,10.00
2019-01-26T06:35:36.830Z,9.97
2019-01-26T06:38:24.512Z,9.50
2019-01-26T06:40:51.104Z,10.40
2019-01-26T06:43:28.436Z,9.60
2019-01-26T06:46:13.418Z,10.50
2019-01-26T06:48:45.818Z,10.63
2019-01-26T06:51:16.287Z,10.37
2019-01-26T06:53:49.545Z,10.83
2019-01-26T06:56:25.157Z,10.67
2019-01-26T06:58:58.421Z,10.80
2019-01-26T07:01:31.799Z,11.47
2019-01-26T07:04:02.330Z,10.40
2019-01-26T07:06:42.862Z,10.50
2019-01-26T07:09:17.844Z,11.40
2019-01-26T07:11:50.481Z,10.97
2019-01-26T07:14:29.963Z,10.10
2019-01-26T07:17:03.231Z,10.77
2019-01-26T07:19:33.744Z,14.83
2019-01-26T07:22:12.874Z,11.37
2019-01-26T07:24:45.846Z,13.00
2019-01-26T07:27:29.567Z,10.93
2019-01-26T07:30:02.730Z,11.23
2019-01-26T07:32:36.810Z,10.97
2019-01-26T07:35:17.129Z,10.77
2019-01-26T07:37:53.505Z,9.83
2019-01-26T07:40:24.242Z,10.80
2019-01-26T07:42:55.187Z,10.30
2019-01-26T07:45:28.576Z,10.17
2019-01-26T07:47:59.710Z,9.47
2019-01-26T07:50:32.377Z,10.50
2019-01-26T07:53:06.326Z,10.80
2019-01-26T07:55:37.151Z,11.70
2019-01-26T07:58:08.185Z,9.87
2019-01-26T08:00:40.004Z,9.40
2019-01-26T08:03:10.606Z,10.00
2019-01-26T08:05:43.339Z,10.30
2019-01-26T08:08:18.039Z,10.37
2019-01-26T08:10:54.755Z,9.17
2019-01-26T08:13:25.376Z,10.30
2019-01-26T08:15:59.407Z,11.83
2019-01-26T08:18:30.498Z,10.00
2019-01-26T08:21:01.241Z,8.87
2019-01-26T08:23:34.356Z,9.70
2019-01-26T08:26:06.807Z,9.37
2019-01-26T08:28:41.876Z,8.43
2019-01-26T08:31:25.376Z,9.43
2019-01-26T08:34:03.690Z,8.70
2019-01-26T08:36:41.111Z,8.30
2019-01-26T08:39:36.113Z,8.37
2019-01-26T08:42:20.247Z,8.73
2019-01-26T08:45:20.765Z,8.30
2019-01-26T08:48:31.899Z,7.57
2019-01-26T08:51:25.041Z,10.53
2019-01-26T08:53:56.857Z,8.33
2019-01-26T08:56:29.256Z,7.30
2019-01-26T08:59:13.655Z,7.20
2019-01-26T09:01:44.420Z,7.90
2019-01-26T09:04:33.291Z,7.00
2019-01-26T09:07:06.763Z,7.77
2019-01-26T09:09:41.226Z,8.13
2019-01-26T09:12:21.283Z,8.20
2019-01-26T09:15:00.932Z,8.20
2019-01-26T09:17:31.769Z,8.53
2019-01-26T09:20:06.513Z,7.80
2019-01-26T09:22:37.098Z,8.00
2019-01-26T09:25:28.380Z,6.93
2019-01-26T09:28:03.046Z,7.67
2019-01-26T09:30:35.440Z,7.37
2019-01-26T09:33:09.257Z,7.63
2019-01-26T09:35:42.768Z,6.47
2019-01-26T09:38:13.255Z,6.70
2019-01-26T09:40:44.920Z,6.73
2019-01-26T09:43:19.575Z,7.33
2019-01-26T09:45:58.168Z,7.43
2019-01-26T09:48:46.178Z,7.13
2019-01-26T09:51:14.709Z,7.77
2019-01-26T09:53:48.862Z,6.70
2019-01-26T09:56:22.029Z,7.67
2019-01-26T09:58:56.966Z,7.63
2019-01-26T10:01:33.295Z,7.60
2019-01-26T10:04:07.979Z,8.23
2019-01-26T10:06:38.743Z,7.77
2019-01-26T10:09:15.107Z,7.07
2019-01-26T10:11:47.270Z,6.87
2019-01-26T10:14:18.022Z,7.43
2019-01-26T10:16:50.481Z,7.80
2019-01-26T10:19:30.043Z,7.83
2019-01-26T10:22:03.741Z,8.60
2019-01-26T10:24:34.357Z,7.90
2019-01-26T10:27:05.305Z,7.07
2019-01-26T10:59:47.151Z,8.57
2019-01-26T11:02:17.884Z,8.20
2019-01-26T11:04:56.225Z,9.87
2019-01-26T11:07:34.604Z,7.97
2019-01-26T11:10:08.755Z,7.93
2019-01-26T11:12:46.244Z,6.47
2019-01-26T11:15:23.744Z,7.13
2019-01-26T11:17:54.356Z,6.57
2019-01-26T11:20:25.201Z,6.93
2019-01-26T11:23:01.292Z,6.77
2019-01-26T11:25:31.881Z,7.87
2019-01-26T11:28:06.749Z,12.77
2019-01-26T11:30:38.573Z,10.90
2019-01-26T11:33:09.042Z,7.47
2019-01-26T11:35:39.625Z,7.57
2019-01-26T11:38:23.421Z,6.70
2019-01-26T11:40:53.923Z,7.30
2019-01-26T11:43:27.131Z,6.37
2019-01-26T11:46:18.371Z,6.53
2019-01-26T11:49:02.296Z,5.73
2019-01-26T11:51:42.939Z,6.60
2019-01-26T11:54:16.015Z,5.30
2019-01-26T11:57:03.820Z,6.13
2019-01-26T11:59:34.429Z,5.90
2019-01-26T12:02:29.919Z,6.37
2019-01-26T12:05:09.165Z,6.10
2019-01-26T12:07:40.192Z,6.30
2019-01-26T12:10:14.551Z,6.23
2019-01-26T12:12:47.478Z,7.20
2019-01-26T12:15:23.240Z,7.30
2019-01-26T12:17:54.227Z,6.97
2019-01-26T12:20:30.330Z,6.43
2019-01-26T12:23:01.025Z,7.93
2019-01-26T12:25:33.502Z,6.50
2019-01-26T12:28:04.384Z,6.10
2019-01-26T12:30:35.548Z,5.83
2019-01-26T12:33:12.287Z,4.97
2019-01-26T12:35:44.212Z,5.30
2019-01-26T12:38:17.845Z,4.70
2019-01-26T12:40:51.664Z,5.07
2019-01-26T12:43:31.059Z,5.20
2019-01-26T12:46:07.700Z,4.90
2019-01-26T12:48:38.504Z,4.97
2019-01-26T12:51:18.790Z,5.00
2019-01-26T12:53:50.551Z,5.07
2019-01-26T12:56:28.516Z,4.77
2019-01-26T12:59:00.442Z,4.43
2019-01-26T13:01:37.677Z,4.10
2019-01-26T13:04:13.001Z,4.47
2019-01-26T13:06:48.857Z,5.97
2019-01-26T13:09:19.696Z,5.00
2019-01-26T13:12:00.054Z,4.23
2019-01-26T13:14:34.827Z,4.50
2019-01-26T13:17:09.329Z,4.60
2019-01-26T13:19:40.246Z,5.10
2019-01-26T13:22:11.103Z,4.40
2019-01-26T13:24:45.335Z,4.73
2019-01-26T13:27:19.266Z,5.10
2019-01-26T13:29:49.878Z,5.13
2019-01-26T13:32:21.969Z,4.90
2019-01-26T13:35:03.330Z,4.57
2019-01-26T13:37:35.563Z,5.30
2019-01-26T13:40:10.357Z,5.20
2019-01-26T13:42:41.731Z,5.30
2019-01-26T13:45:26.729Z,4.60
2019-01-26T13:48:03.707Z,5.00
2019-01-26T13:50:40.417Z,4.63
2019-01-26T13:53:13.874Z,5.13
2019-01-26T13:55:47.698Z,5.30
2019-01-26T13:58:26.186Z,5.73
2019-01-26T14:01:12.671Z,5.77
2019-01-26T14:03:50.475Z,5.13
2019-01-26T14:06:29.855Z,4.90
2019-01-26T14:09:21.762Z,4.90
2019-01-26T14:12:04.160Z,5.07
2019-01-26T14:14:40.809Z,4.77
2019-01-26T14:17:20.457Z,5.50
2019-01-26T14:19:56.388Z,5.80
2019-01-26T14:22:31.685Z,5.27
2019-01-26T14:25:05.246Z,5.70
2019-01-26T14:27:37.251Z,5.90
2019-01-26T14:30:25.390Z,5.43
2019-01-26T14:32:57.189Z,6.10
2019-01-26T14:35:33.864Z,5.83
2019-01-26T14:38:06.212Z,5.50
2019-01-26T14:40:46.201Z,6.20
2019-01-26T14:43:17.498Z,6.20
2019-01-26T14:45:48.414Z,5.70
2019-01-26T14:48:21.386Z,6.57
2019-01-26T14:50:56.244Z,6.43
2019-01-26T14:53:35.139Z,6.13
2019-01-26T14:56:07.466Z,5.37
2019-01-26T14:58:39.341Z,5.37
2019-01-26T15:01:14.504Z,5.57
2019-01-26T15:03:46.794Z,5.60
2019-01-26T15:06:30.756Z,5.77
2019-01-26T15:09:20.131Z,5.47
2019-01-26T15:11:54.533Z,5.50
2019-01-26T15:14:35.670Z,6.00
2019-01-26T15:17:06.551Z,5.40
2019-01-26T15:20:05.952Z,5.53
2019-01-26T15:23:04.020Z,5.87
2019-01-26T15:25:43.115Z,6.67
2019-01-26T15:28:34.710Z,5.73
2019-01-26T15:31:05.291Z,5.90
2019-01-26T15:33:43.848Z,6.80
2019-01-26T15:36:16.999Z,6.67
2019-01-26T15:38:48.125Z,5.70
2019-01-26T15:41:24.640Z,7.10
2019-01-26T15:43:57.315Z,6.70
2019-01-26T15:46:36.739Z,7.00
2019-01-26T15:49:12.399Z,6.20
2019-01-26T15:51:59.390Z,6.73
2019-01-26T15:54:31.267Z,7.07
2019-01-26T15:57:01.981Z,6.77
2019-01-26T15:59:32.587Z,7.27
2019-01-26T16:02:03.417Z,7.17
2019-01-26T16:04:39.097Z,6.70
2019-01-26T16:07:13.432Z,7.30
2019-01-26T16:09:48.906Z,7.87
2019-01-26T16:12:19.787Z,7.93
2019-01-26T16:14:55.710Z,7.53
2019-01-26T16:17:26.390Z,7.80
2019-01-26T16:20:08.424Z,7.90
2019-01-26T16:22:45.204Z,8.03
2019-01-26T16:25:29.170Z,7.80
2019-01-26T16:28:01.008Z,8.20
2019-01-26T16:30:35.027Z,8.20
2019-01-26T16:33:06.032Z,8.10
2019-01-26T16:35:38.749Z,7.90
2019-01-26T16:38:12.306Z,8.93
2019-01-26T16:40:48.339Z,8.50
2019-01-26T16:43:19.258Z,8.53
2019-01-26T16:45:52.195Z,7.90
2019-01-26T16:48:25.002Z,7.97
2019-01-26T16:51:18.922Z,7.80
2019-01-26T16:54:12.367Z,8.83
2019-01-26T16:56:54.031Z,9.10
2019-01-26T16:59:27.880Z,8.30
2019-01-26T17:01:58.706Z,8.53
2019-01-26T17:04:36.848Z,7.93
2019-01-26T17:07:07.465Z,7.87
2019-01-26T17:09:37.869Z,7.40
2019-01-26T17:12:10.968Z,8.37
2019-01-26T17:14:41.465Z,8.17
2019-01-26T17:17:11.941Z,8.47
2019-01-26T17:19:51.674Z,8.40
2019-01-26T17:22:31.626Z,7.10
2019-01-26T17:25:05.588Z,9.47
2019-01-26T17:27:44.183Z,9.37
2019-01-26T17:30:20.855Z,8.83
2019-01-26T17:32:51.588Z,8.87
2019-01-26T17:35:23.571Z,8.77
2019-01-26T17:37:54.174Z,9.03
2019-01-26T17:40:28.039Z,9.27
2019-01-26T17:43:25.928Z,9.53
2019-01-26T17:46:07.923Z,9.47
2019-01-26T17:48:41.368Z,8.73
2019-01-26T17:51:19.821Z,9.77
2019-01-26T17:53:48.952Z,8.97
2019-01-26T17:56:19.765Z,9.83
2019-01-26T17:58:53.016Z,10.50
2019-01-26T18:01:26.604Z,10.50
2019-01-26T18:03:57.363Z,9.93
2019-01-26T18:06:28.350Z,9.80
2019-01-26T18:09:06.461Z,10.30
2019-01-26T18:11:42.676Z,9.23
2019-01-26T18:14:24.394Z,9.53
2019-01-26T18:17:00.239Z,9.43
2019-01-26T18:19:41.023Z,9.83
2019-01-26T18:22:14.233Z,8.80
2019-01-26T18:24:45.242Z,10.37
2019-01-26T18:27:16.003Z,8.47
2019-01-26T18:29:46.548Z,8.63
2019-01-26T18:32:17.449Z,8.47
2019-01-26T18:34:51.288Z,9.47
2019-01-26T18:37:25.218Z,8.93
2019-01-26T18:39:57.189Z,9.10
2019-01-26T18:42:33.223Z,9.20
2019-01-26T18:45:07.757Z,10.00
2019-01-26T18:47:38.307Z,9.80
2019-01-26T18:50:14.025Z,9.80
2019-01-26T18:52:50.550Z,9.33
2019-01-26T18:55:21.542Z,9.47
2019-01-26T18:57:52.051Z,8.73
2019-01-26T19:00:36.594Z,8.87
2019-01-26T19:03:53.524Z,9.13
2019-01-26T19:06:27.328Z,8.77
2019-01-26T19:09:00.750Z,8.87
2019-01-26T19:11:35.364Z,8.80
2019-01-26T19:14:06.170Z,8.33
2019-01-26T19:16:39.767Z,7.40
2019-01-26T19:19:13.784Z,7.90
2019-01-26T19:21:49.688Z,8.30
2019-01-26T19:24:22.600Z,8.00
2019-01-26T19:27:06.384Z,8.27
2019-01-26T19:29:39.774Z,11.10
2019-01-26T19:32:11.098Z,8.20
2019-01-26T19:34:41.640Z,8.67
2019-01-26T19:37:14.226Z,9.70
2019-01-26T19:39:47.247Z,8.03
2019-01-26T19:42:21.605Z,7.13
2019-01-26T19:44:57.882Z,7.23
2019-01-26T19:47:28.837Z,7.10
2019-01-26T19:50:01.624Z,7.97
2019-01-26T19:52:35.368Z,7.13
2019-01-26T19:55:09.146Z,7.80
2019-01-26T19:57:44.175Z,7.30
2019-01-26T20:00:16.676Z,7.47
2019-01-26T20:02:47.518Z,7.20
2019-01-26T20:05:22.393Z,7.67
2019-01-26T20:07:53.363Z,7.80
2019-01-26T20:10:24.856Z,7.80
2019-01-26T20:12:59.842Z,8.50
2019-01-26T20:15:32.214Z,8.47
2019-01-26T20:18:08.942Z,7.33
2019-01-26T20:20:44.960Z,7.90
2019-01-26T20:23:15.850Z,8.43
2019-01-26T20:25:46.992Z,7.87
2019-01-26T20:28:23.860Z,9.43
2019-01-26T20:31:04.171Z,11.80
2019-01-26T20:33:38.235Z,18.47
2019-01-26T20:36:11.869Z,11.77
2019-01-26T20:38:45.264Z,9.60
2019-01-26T20:41:25.761Z,13.97
2019-01-26T20:43:59.316Z,9.97
2019-01-26T20:46:40.934Z,7.70
2019-01-26T20:49:17.118Z,9.70
2019-01-26T20:51:49.660Z,8.80
2019-01-26T20:54:21.880Z,8.03
2019-01-26T20:57:00.472Z,15.60
2019-01-26T20:59:29.316Z,12.43
2019-01-26T21:02:00.073Z,11.53
2019-01-26T21:04:32.555Z,7.90
2019-01-26T21:07:03.660Z,6.77
2019-01-26T21:09:34.084Z,7.37
2019-01-26T21:12:05.045Z,10.70
2019-01-26T21:14:40.043Z,9.17
2019-01-26T21:17:11.224Z,11.67
2019-01-26T21:19:42.773Z,8.50
2019-01-26T21:22:15.070Z,6.43
2019-01-26T21:24:46.207Z,7.17
2019-01-26T21:27:17.344Z,6.77
2019-01-26T21:29:48.956Z,6.90
2019-01-26T21:32:19.812Z,7.50
2019-01-26T21:34:57.627Z,6.80
2019-01-26T21:37:40.321Z,7.27
2019-01-26T21:40:22.474Z,7.27
2019-01-26T21:43:06.063Z,6.60
2019-01-26T21:45:43.315Z,6.73
2019-01-26T21:48:22.663Z,5.90
2019-01-26T21:51:16.348Z,6.67
2019-01-26T21:53:54.426Z,6.43
2019-01-26T21:56:27.883Z,6.73
2019-01-26T21:58:58.410Z,6.27
2019-01-26T22:01:34.293Z,5.77
2019-01-26T22:04:04.940Z,6.17
2019-01-26T22:06:39.055Z,6.10
2019-01-26T22:09:11.428Z,5.80
2019-01-26T22:11:41.978Z,5.70
2019-01-26T22:14:14.670Z,6.20
2019-01-26T22:16:45.258Z,5.57
2019-01-26T22:19:21.782Z,5.67
2019-01-26T22:21:48.384Z,5.40
2019-01-26T22:24:19.426Z,6.23
2019-01-26T22:26:59.574Z,6.70
2019-01-26T22:29:31.379Z,5.80
2019-01-26T22:32:06.224Z,6.47
2019-01-26T22:34:42.048Z,6.30
2019-01-26T22:37:12.442Z,6.50
2019-01-26T22:39:43.095Z,6.03
2019-01-26T22:42:13.670Z,6.60
2019-01-26T22:44:46.927Z,7.00
2019-01-26T22:47:17.441Z,6.23
2019-01-26T22:49:47.964Z,6.90
2019-01-26T22:52:20.838Z,6.20
2019-01-26T22:54:51.363Z,6.30
2019-01-26T22:57:21.885Z,5.90
2019-01-26T22:59:53.142Z,6.27
2019-01-26T23:02:25.921Z,6.40
2019-01-26T23:05:53.390Z,5.63
2019-01-26T23:08:29.336Z,6.70
2019-01-26T23:12:06.462Z,5.23
2019-01-26T23:15:23.956Z,5.27
2019-01-26T23:19:01.326Z,5.40
2019-01-26T23:22:18.307Z,5.50
2019-01-26T23:25:44.909Z,5.57
2019-01-26T23:28:58.592Z,5.70
2019-01-26T23:31:29.386Z,6.00
2019-01-26T23:34:00.027Z,5.77
2019-01-26T23:36:30.777Z,5.73
2019-01-26T23:39:02.368Z,5.27
2019-01-26T23:41:33.327Z,5.60
2019-01-26T23:44:06.330Z,5.13
2019-01-26T23:46:37.024Z,5.63
2019-01-26T23:49:07.459Z,5.00
2019-01-26T23:51:41.397Z,5.33
2019-01-26T23:54:12.269Z,5.70
2019-01-26T23:56:42.795Z,5.47
2019-01-26T23:59:16.537Z,5.80
